Weather at Protinal Heliport

Public forecast

Using degrees Celsius for public forecast. Weather courtesy of forecast.io.

Closest aviation weather report (METAR) to Protinal Heliport

Closest report is Arturo Michelena International Airport, 3.4 nm (6.4 km) SE.

2023/09/30 13:00 (retrieved 58 minutes ago)

SVVA 301300Z /////KT 9999 FEW016 27/21 Q1012

Closest aviation forecast (TAF) to Protinal Heliport

Closest forecast is Arturo Michelena International Airport, 3.4 nm (6.4 km) SE.

2023/09/30 12:12 (retrieved 2 hours ago)

TAF SVVA 301000Z 3012/0112 12005KT 9999 FEW013 BKN016 TX32/3019 TN22/3009 BECMG 3014/3018 09005KT BKN020 FM 302030 09005KT 9999 FEW013 BKN016